Time;durP1;ratioP1;P1;durP2;ratioP2;P2;SDS_P1;SDS_P2;PMS_P1;PMS_P2;Temp;Humidity;BMP_temperature;BMP_pressure;BME280_temperature;BME280_humidity;BME280_pressure;Samples;Min_cycle;Max_cycle;Signal;HPM_P1;HPM_P2
2022/04/27 00:02:01;;;;;;;19.60;15.43;;;;;;;7.52;100.00;99537.75;4992209;28;20210;-76
2022/04/27 00:04:30;;;;;;;19.83;16.03;;;;;;;7.54;100.00;99537.72;4991206;28;20203;-77
2022/04/27 00:07:04;;;;;;;17.80;14.90;;;;;;;7.46;100.00;99540.69;4935898;29;20224;-77
2022/04/27 00:09:35;;;;;;;18.87;15.83;;;;;;;7.34;100.00;99536.81;4948306;29;20251;-77
2022/04/27 00:12:03;;;;;;;18.70;14.73;;;;;;;7.27;100.00;99543.28;4953843;28;20226;-76
2022/04/27 00:14:33;;;;;;;18.97;15.27;;;;;;;7.13;100.00;99540.38;4968937;28;20279;-76
2022/04/27 00:17:03;;;;;;;18.67;15.00;;;;;;;7.03;100.00;99537.28;5046375;28;20375;-77
2022/04/27 00:19:32;;;;;;;18.20;15.30;;;;;;;6.92;100.00;99544.81;4914334;29;20257;-76
2022/04/27 00:22:01;;;;;;;20.30;16.13;;;;;;;7.02;100.00;99542.63;4907538;29;20197;-77
2022/04/27 00:24:30;;;;;;;21.10;16.63;;;;;;;7.12;100.00;99538.66;4912771;29;20204;-77
2022/04/27 00:27:00;;;;;;;20.70;17.30;;;;;;;7.10;100.00;99538.75;4947958;28;20208;-77
2022/04/27 00:29:29;;;;;;;21.73;17.03;;;;;;;7.08;100.00;99539.75;4952645;28;20373;-77
2022/04/27 00:31:58;;;;;;;20.40;16.13;;;;;;;7.14;100.00;99542.09;4894575;29;20222;-77
2022/04/27 00:34:33;;;;;;;20.43;16.93;;;;;;;7.08;100.00;99543.22;4896016;29;20206;-77
2022/04/27 00:37:03;;;;;;;23.33;18.20;;;;;;;7.10;100.00;99540.53;4901128;29;20234;-77
2022/04/27 00:39:34;;;;;;;22.93;18.03;;;;;;;7.00;100.00;99545.34;4931358;29;20263;-76
2022/04/27 00:42:15;;;;;;;23.40;18.10;;;;;;;6.85;100.00;99544.22;4918008;29;20240;-77
2022/04/27 00:44:46;;;;;;;23.70;18.10;;;;;;;6.95;100.00;99551.72;5000055;28;20196;-77
2022/04/27 00:47:18;;;;;;;21.30;17.60;;;;;;;7.00;100.00;99552.38;5024805;28;20209;-77
2022/04/27 00:49:49;;;;;;;24.40;19.30;;;;;;;6.99;100.00;99556.78;5046682;28;20203;-77
2022/04/27 00:52:20;;;;;;;23.73;19.30;;;;;;;7.07;100.00;99553.84;5076853;28;20242;-77
2022/04/27 00:54:49;;;;;;;26.90;20.87;;;;;;;7.09;100.00;99557.25;5072543;28;20220;-77
2022/04/27 00:57:21;;;;;;;26.37;21.27;;;;;;;7.09;100.00;99558.09;5076501;28;20203;-77
2022/04/27 00:59:50;;;;;;;26.60;19.40;;;;;;;7.10;100.00;99567.72;5074841;28;20200;-78
2022/04/27 01:02:18;;;;;;;27.83;21.07;;;;;;;7.23;100.00;99564.53;5074819;28;20196;-77
2022/04/27 01:04:47;;;;;;;28.27;20.17;;;;;;;7.22;100.00;99563.69;5075639;28;20211;-78
2022/04/27 01:07:18;;;;;;;26.30;21.17;;;;;;;7.19;100.00;99563.84;5069312;28;20270;-79
2022/04/27 01:09:46;;;;;;;26.73;22.27;;;;;;;7.13;100.00;99554.41;5057462;28;20238;-78
2022/04/27 01:12:17;;;;;;;28.73;22.93;;;;;;;7.16;100.00;99556.06;5074789;28;20216;-78
2022/04/27 01:14:49;;;;;;;27.73;23.10;;;;;;;7.22;100.00;99558.41;4995874;28;20211;-76
2022/04/27 01:17:21;;;;;;;30.37;23.40;;;;;;;7.18;100.00;99568.25;5091558;28;20211;-77
2022/04/27 01:19:51;;;;;;;29.00;23.20;;;;;;;7.16;100.00;99571.88;5090023;28;20230;-77
2022/04/27 01:22:23;;;;;;;27.57;22.57;;;;;;;7.17;100.00;99566.53;5091127;28;20202;-77
2022/04/27 01:24:54;;;;;;;30.00;24.27;;;;;;;7.18;100.00;99568.25;5061341;28;20200;-77
2022/04/27 01:27:23;;;;;;;32.00;24.70;;;;;;;7.21;100.00;99569.03;5090636;28;20191;-77
2022/04/27 01:29:53;;;;;;;31.80;25.73;;;;;;;7.19;100.00;99571.72;5089364;28;20262;-77
2022/04/27 01:32:22;;;;;;;31.93;25.17;;;;;;;7.21;100.00;99575.16;5084795;28;20317;-77
2022/04/27 01:34:53;;;;;;;33.73;26.13;;;;;;;7.28;100.00;99573.97;5093952;28;20206;-77
2022/04/27 01:40:14;;;;;;;33.17;25.53;;;;;;;7.24;100.00;99569.78;5093798;28;20200;-76
2022/04/27 01:42:42;;;;;;;37.57;27.60;;;;;;;7.25;100.00;99574.13;5088610;28;20196;-77
2022/04/27 01:45:12;;;;;;;33.97;27.87;;;;;;;7.25;100.00;99581.16;5028997;28;20240;-77
2022/04/27 01:47:47;;;;;;;34.97;27.57;;;;;;;7.20;100.00;99575.22;5036485;28;20212;-76
2022/04/27 01:50:19;;;;;;;35.50;28.33;;;;;;;7.18;100.00;99570.03;4993862;28;20301;-76
2022/04/27 01:55:39;;;;;;;38.47;30.40;;;;;;;7.18;100.00;99575.28;4992781;28;20235;-77
2022/04/27 01:58:09;;;;;;;39.40;30.13;;;;;;;7.21;100.00;99571.66;4987344;28;20237;-77
2022/04/27 02:00:38;;;;;;;41.60;31.53;;;;;;;7.16;100.00;99575.38;4988584;28;20266;-77
2022/04/27 02:03:06;;;;;;;39.00;31.13;;;;;;;7.14;100.00;99581.59;5016330;28;20231;-77
2022/04/27 02:05:36;;;;;;;39.63;30.70;;;;;;;7.07;100.00;99578.41;5009686;28;20619;-77
2022/04/27 02:08:09;;;;;;;42.47;31.43;;;;;;;7.06;100.00;99594.28;5033049;28;20186;-76
2022/04/27 02:10:37;;;;;;;43.43;31.70;;;;;;;6.98;100.00;99585.84;5029194;28;20217;-77
2022/04/27 02:13:10;;;;;;;41.77;30.20;;;;;;;7.00;100.00;99592.75;5027093;28;20219;-76
2022/04/27 02:15:39;;;;;;;49.30;33.87;;;;;;;6.98;100.00;99596.38;5027771;28;20225;-76
2022/04/27 02:18:08;;;;;;;46.10;33.83;;;;;;;7.05;100.00;99603.94;5028429;28;20240;-77
2022/04/27 02:20:36;;;;;;;44.67;33.73;;;;;;;7.01;100.00;99601.50;5004910;28;20228;-76
2022/04/27 02:23:07;;;;;;;45.40;34.17;;;;;;;7.04;100.00;99601.34;5070571;28;20304;-76
2022/04/27 02:25:36;;;;;;;42.60;32.27;;;;;;;6.89;100.00;99606.38;5039163;28;20290;-77
2022/04/27 02:28:06;;;;;;;41.80;31.27;;;;;;;6.94;100.00;99606.16;5088971;28;20195;-78
2022/04/27 02:30:37;;;;;;;38.40;30.33;;;;;;;6.94;100.00;99611.41;5089854;28;20199;-77
2022/04/27 02:33:06;;;;;;;35.77;28.20;;;;;;;6.85;100.00;99607.41;5092431;28;20215;-77
2022/04/27 02:35:36;;;;;;;37.27;28.07;;;;;;;6.80;100.00;99609.38;5087838;28;20195;-77
2022/04/27 02:38:07;;;;;;;37.53;28.63;;;;;;;6.78;100.00;99608.59;5084439;28;20196;-77
2022/04/27 02:40:35;;;;;;;37.27;27.93;;;;;;;6.80;100.00;99609.38;5088023;28;20200;-77
2022/04/27 02:43:04;;;;;;;36.27;28.53;;;;;;;6.87;100.00;99607.34;4989526;28;20337;-77
2022/04/27 02:45:33;;;;;;;35.00;29.30;;;;;;;6.87;100.00;99608.22;4989213;28;20277;-77
2022/04/27 02:48:02;;;;;;;36.17;28.70;;;;;;;6.88;100.00;99616.97;4990382;28;20210;-77
2022/04/27 02:53:19;;;;;;;39.10;30.00;;;;;;;6.91;100.00;99624.72;4992363;28;20223;-77
2022/04/27 02:55:47;;;;;;;36.70;29.43;;;;;;;6.84;100.00;99620.63;4988541;28;20230;-77
2022/04/27 02:58:19;;;;;;;35.00;28.80;;;;;;;6.82;100.00;99633.00;4992643;28;20217;-77
2022/04/27 03:00:48;;;;;;;37.97;29.83;;;;;;;6.79;100.00;99626.09;5009419;28;20196;-77
2022/04/27 03:03:18;;;;;;;37.57;28.17;;;;;;;6.77;100.00;99635.84;5073677;28;20203;-77
2022/04/27 03:05:46;;;;;;;39.13;29.60;;;;;;;6.81;100.00;99623.41;5071188;28;20242;-77
2022/04/27 03:08:15;;;;;;;35.63;29.27;;;;;;;6.83;100.00;99621.53;5069836;28;20207;-77
2022/04/27 03:10:47;;;;;;;40.03;29.93;;;;;;;6.81;100.00;99624.25;5076517;27;20208;-77
2022/04/27 03:13:16;;;;;;;38.03;29.93;;;;;;;6.85;100.00;99631.13;5075663;28;20744;-77
2022/04/27 03:15:45;;;;;;;38.20;29.53;;;;;;;6.88;100.00;99625.72;5078957;28;20207;-76
2022/04/27 03:18:20;;;;;;;40.30;30.30;;;;;;;6.92;100.00;99622.94;5074294;28;20665;-77
2022/04/27 03:20:49;;;;;;;37.97;29.73;;;;;;;6.91;100.00;99629.13;5073656;28;20205;-77
2022/04/27 03:23:18;;;;;;;36.83;29.80;;;;;;;6.94;100.00;99636.91;5074669;28;20216;-77
2022/04/27 03:25:48;;;;;;;38.43;29.83;;;;;;;6.90;100.00;99623.00;5066818;28;20211;-77
2022/04/27 03:28:18;;;;;;;39.63;29.47;;;;;;;6.86;100.00;99632.81;5074909;28;20279;-76
2022/04/27 03:30:48;;;;;;;36.00;28.10;;;;;;;6.86;100.00;99638.09;5069339;28;20208;-77
2022/04/27 03:33:18;;;;;;;37.17;29.17;;;;;;;6.76;100.00;99634.13;5071339;28;20303;-77
2022/04/27 03:35:47;;;;;;;35.90;28.87;;;;;;;6.72;100.00;99635.16;5072779;28;20192;-77
2022/04/27 03:38:18;;;;;;;35.23;27.73;;;;;;;6.77;100.00;99638.47;5071795;28;20193;-77
2022/04/27 03:40:48;;;;;;;38.00;29.67;;;;;;;6.74;100.00;99635.94;5073552;28;20200;-77
2022/04/27 03:43:19;;;;;;;35.60;28.00;;;;;;;6.58;100.00;99642.75;5077120;28;20194;-77
2022/04/27 03:45:47;;;;;;;35.47;28.23;;;;;;;6.62;100.00;99640.84;5072277;28;20211;-77
2022/04/27 03:48:16;;;;;;;33.77;27.80;;;;;;;6.59;100.00;99647.97;5075046;28;20185;-77
2022/04/27 03:50:45;;;;;;;34.77;27.37;;;;;;;6.57;100.00;99654.22;5075578;28;20227;-77
2022/04/27 03:53:14;;;;;;;34.70;28.13;;;;;;;6.42;100.00;99658.28;5076099;28;20368;-77
2022/04/27 03:55:43;;;;;;;34.67;27.33;;;;;;;6.45;100.00;99654.66;5067482;28;20199;-77
2022/04/27 03:58:14;;;;;;;32.57;25.47;;;;;;;6.43;100.00;99652.09;5072415;28;20189;-77
2022/04/27 04:00:43;;;;;;;35.30;26.67;;;;;;;6.42;100.00;99662.69;5067193;28;20196;-77
2022/04/27 04:03:12;;;;;;;29.63;24.47;;;;;;;6.38;100.00;99659.34;5065714;28;20203;-79
2022/04/27 04:05:47;;;;;;;33.30;24.77;;;;;;;6.23;100.00;99657.28;5066937;28;20259;-77
2022/04/27 04:08:17;;;;;;;31.87;25.70;;;;;;;6.25;100.00;99661.56;5005211;28;20230;-76
2022/04/27 04:10:46;;;;;;;30.37;24.37;;;;;;;6.25;100.00;99669.44;5011064;28;20587;-76
2022/04/27 04:13:17;;;;;;;31.40;25.30;;;;;;;6.29;100.00;99665.81;5008338;28;20214;-77
2022/04/27 04:15:46;;;;;;;34.07;26.27;;;;;;;6.26;100.00;99662.41;5013231;28;20206;-77
2022/04/27 04:18:14;;;;;;;36.53;26.63;;;;;;;6.25;100.00;99672.09;4991258;28;20203;-77
2022/04/27 04:20:44;;;;;;;31.50;24.90;;;;;;;6.26;100.00;99667.69;4982504;28;20203;-77
2022/04/27 04:23:12;;;;;;;34.73;27.17;;;;;;;6.31;100.00;99673.63;4975529;28;20210;-77
2022/04/27 04:28:33;;;;;;;31.53;25.33;;;;;;;6.31;100.00;99686.78;4926264;28;20203;-77
2022/04/27 04:31:03;;;;;;;32.37;25.10;;;;;;;6.40;100.00;99685.59;4950307;28;20196;-77
2022/04/27 04:33:32;;;;;;;32.70;25.93;;;;;;;6.35;100.00;99690.16;4949988;28;20235;-77
2022/04/27 04:36:03;;;;;;;33.17;25.73;;;;;;;6.47;100.00;99692.34;4960374;28;20219;-77
2022/04/27 04:38:33;;;;;;;35.13;27.13;;;;;;;6.49;100.00;99701.88;4981040;28;20367;-77
2022/04/27 04:41:02;;;;;;;34.30;26.27;;;;;;;6.48;100.00;99705.41;5054207;28;20190;-77
2022/04/27 04:43:33;;;;;;;37.27;27.17;;;;;;;6.53;100.00;99702.59;5063556;27;20200;-77
2022/04/27 04:46:04;;;;;;;32.97;26.37;;;;;;;6.56;100.00;99702.47;5060954;28;20216;-77
2022/04/27 04:48:33;;;;;;;35.43;26.10;;;;;;;6.57;100.00;99712.97;5053294;28;20193;-77
2022/04/27 04:51:01;;;;;;;33.50;25.87;;;;;;;6.62;100.00;99709.28;5053470;28;20217;-78
2022/04/27 04:53:29;;;;;;;33.77;26.93;;;;;;;6.60;100.00;99710.19;5060596;28;20224;-77
2022/04/27 04:55:58;;;;;;;31.90;26.23;;;;;;;6.74;100.00;99720.19;5054919;28;20274;-77
2022/04/27 04:58:32;;;;;;;34.03;26.30;;;;;;;6.72;100.00;99727.28;5056192;28;20197;-77
2022/04/27 05:01:02;;;;;;;33.23;27.10;;;;;;;6.84;100.00;99723.31;5056562;28;20193;-77
2022/04/27 05:03:36;;;;;;;33.40;26.77;;;;;;;6.83;100.00;99727.72;5047916;28;20201;-77
2022/04/27 05:06:05;;;;;;;33.60;26.27;;;;;;;6.89;100.00;99730.13;5013465;28;20241;-76
2022/04/27 05:08:33;;;;;;;35.13;27.47;;;;;;;6.96;100.00;99735.16;5010819;28;20192;-77
2022/04/27 05:11:01;;;;;;;35.13;27.00;;;;;;;6.87;100.00;99737.22;5013046;28;20209;-77
2022/04/27 05:13:34;;;;;;;34.83;28.00;;;;;;;6.93;100.00;99736.09;5013370;28;20252;-77
2022/04/27 05:16:03;;;;;;;34.97;28.00;;;;;;;6.79;100.00;99744.56;5014219;28;20214;-77
2022/04/27 05:18:32;;;;;;;37.53;27.00;;;;;;;6.82;100.00;99743.59;5011018;28;20202;-77
2022/04/27 05:21:01;;;;;;;33.20;26.57;;;;;;;6.91;100.00;99743.22;5015528;28;20197;-77
2022/04/27 05:23:32;;;;;;;36.93;25.93;;;;;;;6.70;100.00;99747.56;5018658;28;20268;-77
2022/04/27 05:26:03;;;;;;;33.43;24.87;;;;;;;6.89;100.00;99756.44;5028422;28;20201;-77
2022/04/27 05:31:54;;;;;;;33.03;25.63;;;;;;;6.95;100.00;99749.22;4989549;28;20647;-77
2022/04/27 05:34:07;;;;;;;34.47;25.97;;;;;;;6.97;100.00;99771.09;4993722;28;20270;-77
2022/04/27 05:36:36;;;;;;;34.13;26.23;;;;;;;6.92;100.00;99767.78;4990134;28;20206;-77
2022/04/27 05:39:05;;;;;;;35.90;26.93;;;;;;;7.03;100.00;99769.06;4987881;28;20202;-77
2022/04/27 05:41:34;;;;;;;37.63;27.07;;;;;;;7.20;100.00;99770.16;4984792;28;20205;-77
2022/04/27 05:44:07;;;;;;;34.43;26.67;;;;;;;7.36;100.00;99768.63;4995070;28;20209;-77
2022/04/27 05:46:36;;;;;;;34.90;26.50;;;;;;;7.48;100.00;99781.31;5016167;28;20198;-76
2022/04/27 05:49:05;;;;;;;37.43;26.77;;;;;;;7.58;100.00;99780.00;4955198;28;20229;-77
2022/04/27 05:51:34;;;;;;;31.27;25.10;;;;;;;7.63;100.00;99783.31;4948124;28;20228;-77
2022/04/27 05:54:03;;;;;;;34.30;26.37;;;;;;;7.72;100.00;99776.78;4948132;28;20220;-77
2022/04/27 05:56:32;;;;;;;34.47;26.03;;;;;;;7.68;100.00;99783.97;4953057;28;20200;-77
2022/04/27 05:59:01;;;;;;;30.40;23.53;;;;;;;7.88;100.00;99788.38;4951966;28;20207;-77
2022/04/27 06:01:35;;;;;;;31.97;24.23;;;;;;;7.97;100.00;99789.78;4952031;28;20215;-77
2022/04/27 06:04:04;;;;;;;30.13;24.57;;;;;;;7.85;100.00;99785.03;4954845;28;20204;-77
2022/04/27 06:06:33;;;;;;;31.63;24.47;;;;;;;8.04;100.00;99791.22;4994947;28;20201;-77
2022/04/27 06:09:04;;;;;;;31.97;25.10;;;;;;;7.99;100.00;99793.19;5057030;28;20195;-77
2022/04/27 06:11:33;;;;;;;35.33;25.87;;;;;;;8.07;100.00;99796.38;5051421;28;20197;-77
2022/04/27 06:14:01;;;;;;;29.57;23.53;;;;;;;8.07;100.00;99798.16;5048555;28;20240;-77
2022/04/27 06:16:33;;;;;;;35.90;25.90;;;;;;;8.04;100.00;99791.22;5050301;28;20189;-77
2022/04/27 06:19:03;;;;;;;32.23;25.50;;;;;;;8.25;100.00;99802.63;5049933;28;20220;-77
2022/04/27 06:21:32;;;;;;;30.57;25.00;;;;;;;8.30;100.00;99801.50;5052650;28;20212;-77
2022/04/27 06:24:05;;;;;;;33.07;25.57;;;;;;;8.29;100.00;99801.56;5050049;28;20291;-77
2022/04/27 06:26:36;;;;;;;31.83;24.60;;;;;;;8.31;100.00;99812.91;5050511;28;20201;-77
2022/04/27 06:29:06;;;;;;;34.83;24.50;;;;;;;8.41;100.00;99813.41;4978419;28;20210;-77
2022/04/27 06:31:35;;;;;;;32.23;24.10;;;;;;;8.45;100.00;99813.19;5006731;28;20202;-77
2022/04/27 06:34:05;;;;;;;31.50;24.20;;;;;;;8.56;100.00;99812.69;5006618;28;20198;-76
2022/04/27 06:36:36;;;;;;;33.47;24.30;;;;;;;8.55;100.00;99818.91;5026876;28;20198;-77
2022/04/27 06:39:07;;;;;;;29.90;24.27;;;;;;;8.69;100.00;99813.03;5021118;28;20201;-77
2022/04/27 06:41:35;;;;;;;31.73;24.50;;;;;;;8.73;100.00;99823.34;4947342;28;20208;-77
2022/04/27 06:44:06;;;;;;;28.27;23.73;;;;;;;8.92;100.00;99820.72;4951372;29;20207;-77
2022/04/27 06:46:34;;;;;;;31.67;24.50;;;;;;;8.98;100.00;99827.53;4891671;29;20192;-77
2022/04/27 06:49:03;;;;;;;31.10;24.50;;;;;;;9.01;100.00;99827.38;4946851;29;20200;-77
2022/04/27 06:51:33;;;;;;;29.27;23.80;;;;;;;9.00;100.00;99815.94;4945566;29;20236;-77
2022/04/27 06:54:03;;;;;;;29.20;23.70;;;;;;;9.09;100.00;99822.59;4946454;28;20263;-78
2022/04/27 06:56:42;;;;;;;29.03;23.73;;;;;;;9.23;100.00;99821.91;4920057;29;20627;-77
2022/04/27 06:59:12;;;;;;;29.10;22.80;;;;;;;9.32;100.00;99818.84;4943482;28;20210;-77
2022/04/27 07:01:40;;;;;;;23.93;19.97;;;;;;;9.38;100.00;99826.47;4992425;28;20306;-77
2022/04/27 07:04:11;;;;;;;23.60;19.20;;;;;;;9.34;100.00;99822.25;4992434;28;20226;-78
2022/04/27 07:06:47;;;;;;;24.80;18.77;;;;;;;9.42;100.00;99818.31;4990145;28;20254;-77
2022/04/27 07:09:16;;;;;;;26.13;18.13;;;;;;;9.51;100.00;99821.44;4988051;28;20250;-77
2022/04/27 07:11:45;;;;;;;25.00;18.83;;;;;;;9.63;100.00;99826.97;4983350;28;20299;-77
2022/04/27 07:14:16;;;;;;;24.80;18.47;;;;;;;9.66;100.00;99828.63;4990066;28;20191;-77
2022/04/27 07:16:44;;;;;;;24.90;17.60;;;;;;;9.68;100.00;99822.31;4996145;28;20191;-77
2022/04/27 07:19:13;;;;;;;21.60;16.90;;;;;;;9.68;100.00;99822.31;5070135;28;20200;-77
2022/04/27 07:21:46;;;;;;;22.20;16.30;;;;;;;9.75;100.00;99822.88;5071093;28;20196;-77
2022/04/27 07:24:14;;;;;;;22.47;17.00;;;;;;;9.79;100.00;99829.72;5067074;28;20185;-77
2022/04/27 07:26:44;;;;;;;22.13;16.70;;;;;;;9.79;100.00;99820.94;5063549;28;20273;-77
2022/04/27 07:29:12;;;;;;;18.93;16.57;;;;;;;9.92;100.00;99830.81;5027379;28;20205;-77
2022/04/27 07:31:43;;;;;;;21.43;16.30;;;;;;;9.99;100.00;99823.44;5029037;28;20233;-77
2022/04/27 07:34:12;;;;;;;19.87;15.27;;;;;;;10.25;100.00;99825.63;5023900;28;20202;-77
2022/04/27 07:36:45;;;;;;;21.00;16.13;;;;;;;10.25;100.00;99825.63;5029399;28;20217;-77
2022/04/27 07:39:20;;;;;;;20.17;15.83;;;;;;;10.21;100.00;99828.47;5026064;28;20201;-77
2022/04/27 07:41:48;;;;;;;22.23;15.57;;;;;;;10.37;100.00;99832.06;5008360;28;20209;-77
2022/04/27 07:44:17;;;;;;;22.10;15.90;;;;;;;10.48;100.00;99835.00;5023677;28;20193;-77
2022/04/27 07:46:48;;;;;;;20.93;15.07;;;;;;;10.58;100.00;99835.38;5041277;28;20257;-77
2022/04/27 07:49:19;;;;;;;18.73;15.43;;;;;;;10.73;100.00;99834.56;5011275;28;20194;-77
2022/04/27 07:51:50;;;;;;;19.17;15.73;;;;;;;10.72;100.00;99840.81;4963482;28;20222;-77
2022/04/27 07:54:19;;;;;;;19.70;15.90;;;;;;;10.76;100.00;99844.13;5008997;28;20281;-77
2022/04/27 07:56:48;;;;;;;18.83;15.47;;;;;;;10.76;100.00;99847.66;4959671;28;20278;-77
2022/04/27 07:59:18;;;;;;;19.77;15.00;;;;;;;10.94;100.00;99845.81;5008734;28;20194;-77
2022/04/27 08:01:46;;;;;;;19.70;15.53;;;;;;;11.06;100.00;99852.22;4962939;28;20198;-78
2022/04/27 08:04:16;;;;;;;21.13;16.13;;;;;;;11.26;100.00;99853.78;5004192;28;20216;-77
2022/04/27 08:06:45;;;;;;;18.73;16.03;;;;;;;11.39;100.00;99852.16;4977062;28;20212;-77
2022/04/27 08:09:16;;;;;;;19.27;16.00;;;;;;;11.52;100.00;99854.97;5071342;28;20192;-78
2022/04/27 08:11:45;;;;;;;21.27;15.10;;;;;;;11.64;100.00;99852.47;5066624;28;20199;-77
2022/04/27 08:14:15;;;;;;;18.33;14.23;;;;;;;11.63;100.00;99845.44;4962318;28;20676;-77
2022/04/27 08:16:44;;;;;;;17.43;14.87;;;;;;;11.83;100.00;99848.78;5009900;28;20357;-77
2022/04/27 08:19:13;;;;;;;16.93;14.43;;;;;;;11.91;100.00;99844.75;5010898;28;20217;-77
2022/04/27 08:21:48;;;;;;;18.07;15.03;;;;;;;11.84;100.00;99839.88;5009587;28;20295;-77
2022/04/27 08:24:22;;;;;;;17.63;14.53;;;;;;;11.90;100.00;99843.03;4951352;29;20278;-78
2022/04/27 08:26:54;;;;;;;17.20;14.27;;;;;;;11.96;100.00;99844.47;4929669;29;20200;-78
2022/04/27 08:29:23;;;;;;;21.17;15.13;;;;;;;12.08;100.00;99843.75;4931354;29;20189;-78
2022/04/27 08:31:53;;;;;;;16.40;14.63;;;;;;;12.39;100.00;99841.94;4920826;29;20211;-78
2022/04/27 08:34:24;;;;;;;17.47;14.80;;;;;;;12.55;100.00;99840.91;4946339;28;20203;-78
2022/04/27 08:36:53;;;;;;;18.97;14.80;;;;;;;12.67;100.00;99846.41;4952646;29;20223;-77
2022/04/27 08:39:26;;;;;;;18.27;14.33;;;;;;;12.71;100.00;99840.81;4961317;28;20255;-78
2022/04/27 08:41:55;;;;;;;18.23;14.93;;;;;;;12.56;100.00;99845.28;4983242;28;20201;-78
2022/04/27 08:44:24;;;;;;;19.30;15.17;;;;;;;12.84;100.00;99846.22;5040944;28;20197;-79
2022/04/27 08:46:53;;;;;;;18.70;13.50;;;;;;;12.97;100.00;99847.16;5064684;28;20203;-79
2022/04/27 08:49:24;;;;;;;15.77;13.43;;;;;;;13.09;100.00;99845.53;5069051;28;20204;-78
2022/04/27 08:51:54;;;;;;;21.13;13.30;;;;;;;13.18;100.00;99844.94;5070770;28;20307;-78
2022/04/27 08:54:22;;;;;;;15.80;13.30;;;;;;;13.13;100.00;99841.75;5067186;28;20197;-77
2022/04/27 08:56:53;;;;;;;17.77;13.40;;;;;;;13.28;100.00;99843.44;5063389;28;20213;-79
2022/04/27 08:59:22;;;;;;;16.50;12.43;;;;;;;13.33;100.00;99849.34;5049921;28;20200;-78
2022/04/27 09:01:51;;;;;;;15.37;12.23;;;;;;;13.47;100.00;99840.44;5072118;28;20196;-78
2022/04/27 09:04:19;;;;;;;15.50;12.53;;;;;;;13.61;100.00;99836.91;5068241;28;20192;-78
2022/04/27 09:06:49;;;;;;;15.10;12.57;;;;;;;13.94;100.00;99836.47;5065051;28;20197;-78
2022/04/27 09:09:40;;;;;;;17.30;11.87;;;;;;;14.01;100.00;99835.09;5034243;28;20192;-77
2022/04/27 09:12:16;;;;;;;16.53;11.53;;;;;;;14.02;100.00;99842.13;5064306;28;20254;-78
2022/04/27 09:14:45;;;;;;;16.23;11.13;;;;;;;14.08;100.00;99838.19;5072252;28;20188;-78
2022/04/27 09:23:04;;;;;;;13.10;10.50;;;;;;;14.76;100.00;99841.44;5072292;28;20215;-78
2022/04/27 09:25:36;;;;;;;11.13;10.03;;;;;;;14.92;100.00;99835.91;5064828;28;20212;-78
2022/04/27 09:28:32;;;;;;;13.00;10.27;;;;;;;14.73;100.00;99839.00;5074900;28;20710;-78
2022/04/27 09:31:01;;;;;;;13.40;10.20;;;;;;;14.99;100.00;99844.34;5053542;28;20223;-78
2022/04/27 09:33:34;;;;;;;12.97;9.73;;;;;;;15.04;100.00;99837.69;5050069;28;20193;-78
2022/04/27 09:36:03;;;;;;;12.00;9.70;;;;;;;15.06;100.00;99842.94;5049155;28;20216;-78
2022/04/27 09:38:41;;;;;;;14.27;9.70;;;;;;;14.91;100.00;99830.69;5048740;28;20200;-78
2022/04/27 09:41:10;;;;;;;14.47;10.13;;;;;;;15.10;100.00;99831.06;5053694;28;20227;-78
2022/04/27 09:43:46;;;;;;;16.43;10.73;;;;;;;15.43;100.00;99827.75;4962602;28;20222;-78
2022/04/27 09:46:16;;;;;;;11.27;9.20;;;;;;;15.70;100.00;99831.09;4992655;28;20802;-78
2022/04/27 09:49:11;;;;;;;11.03;9.80;;;;;;;16.15;100.00;99833.94;5009116;28;20354;-79
2022/04/27 09:51:58;;;;;;;9.27;8.30;;;;;;;16.06;100.00;99826.63;5019598;28;20217;-78
2022/04/27 09:54:29;;;;;;;10.97;9.07;;;;;;;16.22;100.00;99837.03;5027530;28;20194;-79
2022/04/27 09:56:59;;;;;;;11.17;8.87;;;;;;;16.31;100.00;99830.97;5028936;28;20221;-78
2022/04/27 09:59:31;;;;;;;12.27;8.53;;;;;;;16.52;100.00;99828.47;5030728;28;20212;-78
2022/04/27 10:02:05;;;;;;;11.27;8.07;;;;;;;16.45;100.00;99838.75;5056837;28;20199;-78
2022/04/27 10:04:39;;;;;;;11.57;7.73;;;;;;;16.48;100.00;99835.84;5071594;28;20636;-78
2022/04/27 10:07:13;;;;;;;10.70;8.60;;;;;;;16.54;100.00;99831.84;5072691;28;20271;-78
2022/04/27 10:09:41;;;;;;;10.87;7.80;;;;;;;16.98;100.00;99833.72;5036891;28;20699;-78
2022/04/27 10:12:13;;;;;;;10.30;8.70;;;;;;;16.90;100.00;99819.28;5069174;28;20200;-79
2022/04/27 10:14:50;;;;;;;11.70;8.67;;;;;;;16.57;100.00;99826.25;5073018;28;20342;-79
2022/04/27 10:17:19;;;;;;;10.00;8.00;;;;;;;16.09;100.00;99825.53;5057109;28;20211;-78
2022/04/27 10:19:48;;;;;;;10.27;8.23;;;;;;;16.66;100.00;99828.22;5075095;28;20711;-79
2022/04/27 10:22:27;;;;;;;12.43;8.43;;;;;;;17.00;100.00;99821.09;5071160;28;20196;-79
2022/04/27 10:24:57;;;;;;;12.23;7.90;;;;;;;16.88;100.00;99811.34;5069507;28;20682;-79
2022/04/27 10:27:27;;;;;;;9.73;7.30;;;;;;;17.45;100.00;99816.50;5071062;28;20204;-79
2022/04/27 10:30:06;;;;;;;8.93;7.50;;;;;;;17.93;100.00;99818.78;5074464;28;20275;-79
2022/04/27 10:32:36;;;;;;;7.77;7.00;;;;;;;18.22;100.00;99816.31;5070153;28;20741;-78
2022/04/27 10:35:25;;;;;;;9.00;7.57;;;;;;;17.47;100.00;99813.72;5072509;28;20193;-79
2022/04/27 10:37:57;;;;;;;8.07;6.80;;;;;;;17.74;100.00;99819.47;5071417;28;20307;-78
2022/04/27 10:40:31;;;;;;;8.63;6.53;;;;;;;17.59;100.00;99812.69;5071482;28;20199;-79
2022/04/27 10:43:12;;;;;;;11.33;7.50;;;;;;;18.05;100.00;99818.72;5074489;28;20189;-78
2022/04/27 10:45:47;;;;;;;8.93;7.03;;;;;;;18.12;100.00;99812.72;5070314;28;20271;-79
2022/04/27 10:48:22;;;;;;;8.60;6.60;;;;;;;18.04;100.00;99807.16;5041378;28;20242;-79
2022/04/27 10:51:01;;;;;;;9.00;6.80;;;;;;;17.93;100.00;99805.38;5075854;28;20216;-79
2022/04/27 10:53:40;;;;;;;9.37;7.17;;;;;;;17.59;100.00;99814.53;5003640;28;20196;-79
2022/04/27 10:56:29;;;;;;;9.90;7.53;;;;;;;18.06;100.00;99807.06;4945798;28;20666;-79
2022/04/27 10:58:58;;;;;;;7.20;6.03;;;;;;;18.53;100.00;99811.88;4969034;28;20671;-79
2022/04/27 11:01:30;;;;;;;8.70;6.20;;;;;;;18.86;99.10;99808.13;4968454;28;20206;-79
2022/04/27 11:04:11;;;;;;;7.33;5.63;;;;;;;18.85;93.08;99810.94;4967470;28;20217;-79
2022/04/27 11:07:19;;;;;;;6.00;5.40;;;;;;;19.01;93.90;99810.41;4937739;28;20192;-78
2022/04/27 11:10:15;;;;;;;6.97;5.80;;;;;;;19.20;87.29;99812.31;4956240;28;20675;-79
2022/04/27 11:12:48;;;;;;;7.33;5.80;;;;;;;19.56;87.64;99805.50;5008400;28;20202;-79
2022/04/27 11:15:28;;;;;;;8.97;6.07;;;;;;;19.77;88.71;99803.53;5063572;28;20212;-79
2022/04/27 11:18:01;;;;;;;8.07;5.90;;;;;;;19.86;89.96;99804.53;5073618;28;20223;-80
2022/04/27 11:20:32;;;;;;;8.03;5.80;;;;;;;19.82;90.00;99801.28;5029026;28;20194;-79
2022/04/27 11:23:07;;;;;;;4.93;4.47;;;;;;;19.31;72.62;99804.16;4972769;28;20199;-81
2022/04/27 11:25:38;;;;;;;5.13;4.63;;;;;;;20.54;69.73;99799.94;4965261;28;20195;-79
2022/04/27 11:28:07;;;;;;;5.50;4.97;;;;;;;20.77;70.11;99808.53;4972983;28;20651;-79
2022/04/27 11:30:36;;;;;;;5.83;5.20;;;;;;;20.51;70.27;99800.22;4968028;28;20226;-80
2022/04/27 11:33:09;;;;;;;8.60;5.40;;;;;;;20.42;71.10;99809.16;4968985;28;20214;-79
2022/04/27 11:35:40;;;;;;;6.53;5.33;;;;;;;19.26;71.14;99804.56;4970333;28;20207;-79
2022/04/27 11:38:09;;;;;;;5.07;4.20;;;;;;;20.68;72.28;99796.78;4985049;28;20217;-80
2022/04/27 11:40:39;;;;;;;7.33;5.00;;;;;;;20.36;71.25;99798.94;5036102;28;20271;-80
2022/04/27 11:43:09;;;;;;;6.30;4.60;;;;;;;20.40;68.34;99801.22;5055285;28;20208;-79
2022/04/27 11:45:39;;;;;;;4.73;4.23;;;;;;;20.62;74.67;99785.75;5070820;28;20279;-79
2022/04/27 11:48:10;;;;;;;4.93;3.37;;;;;;;21.35;54.35;99797.50;5072202;28;20192;-79
2022/04/27 11:50:41;;;;;;;5.83;3.57;;;;;;;21.70;50.10;99792.13;5068551;28;20228;-79
2022/04/27 11:53:13;;;;;;;4.23;3.83;;;;;;;21.23;48.89;99799.53;5074426;28;20230;-79
2022/04/27 11:55:49;;;;;;;5.47;3.83;;;;;;;21.10;54.63;99801.69;5067214;28;20204;-80